sensor_id;sensor_type;location;lat;lon;timestamp;pressure;altitude;pressure_sealevel;temperature;humidity
9746;BME280;4912;50.836;12.958;2023-07-24T00:02:12;97066.88;;;23.91;48.45
9746;BME280;4912;50.836;12.958;2023-07-24T00:04:43;97058.78;;;23.88;48.43
9746;BME280;4912;50.836;12.958;2023-07-24T00:07:13;97062.25;;;23.79;48.67
9746;BME280;4912;50.836;12.958;2023-07-24T00:09:44;97060.59;;;23.68;49.08
9746;BME280;4912;50.836;12.958;2023-07-24T00:12:14;97051.97;;;23.66;49.31
9746;BME280;4912;50.836;12.958;2023-07-24T00:14:47;97051.13;;;23.56;49.11
9746;BME280;4912;50.836;12.958;2023-07-24T00:17:18;97045.81;;;23.60;49.13
9746;BME280;4912;50.836;12.958;2023-07-24T00:19:49;97053.19;;;23.55;49.31
9746;BME280;4912;50.836;12.958;2023-07-24T00:22:19;97054.88;;;23.51;49.13
9746;BME280;4912;50.836;12.958;2023-07-24T00:24:49;97055.25;;;23.55;49.29
9746;BME280;4912;50.836;12.958;2023-07-24T00:27:20;97052.06;;;23.51;49.18
9746;BME280;4912;50.836;12.958;2023-07-24T00:29:53;97052.09;;;23.43;49.07
9746;BME280;4912;50.836;12.958;2023-07-24T00:32:24;97047.38;;;23.46;49.08
9746;BME280;4912;50.836;12.958;2023-07-24T00:34:55;97045.53;;;23.41;48.82
9746;BME280;4912;50.836;12.958;2023-07-24T00:37:25;97043.84;;;23.38;49.01
9746;BME280;4912;50.836;12.958;2023-07-24T00:39:55;97045.00;;;23.35;48.92
9746;BME280;4912;50.836;12.958;2023-07-24T00:42:26;97036.22;;;23.23;48.76
9746;BME280;4912;50.836;12.958;2023-07-24T00:44:59;97042.06;;;23.17;49.07
9746;BME280;4912;50.836;12.958;2023-07-24T00:47:32;97037.16;;;23.25;48.84
9746;BME280;4912;50.836;12.958;2023-07-24T00:50:03;97044.13;;;23.24;48.94
9746;BME280;4912;50.836;12.958;2023-07-24T00:52:35;97047.50;;;23.23;48.88
9746;BME280;4912;50.836;12.958;2023-07-24T00:55:06;97045.03;;;23.27;48.50
9746;BME280;4912;50.836;12.958;2023-07-24T00:57:37;97037.50;;;23.30;48.83
9746;BME280;4912;50.836;12.958;2023-07-24T01:00:11;97046.94;;;23.24;48.67
9746;BME280;4912;50.836;12.958;2023-07-24T01:02:43;97028.31;;;23.21;48.69
9746;BME280;4912;50.836;12.958;2023-07-24T01:05:14;97034.69;;;23.30;48.78
9746;BME280;4912;50.836;12.958;2023-07-24T01:07:44;97024.13;;;23.30;48.53
9746;BME280;4912;50.836;12.958;2023-07-24T01:10:15;97025.69;;;23.23;48.66
9746;BME280;4912;50.836;12.958;2023-07-24T01:12:51;97028.16;;;23.19;48.85
9746;BME280;4912;50.836;12.958;2023-07-24T01:15:32;97030.44;;;23.13;49.20
9746;BME280;4912;50.836;12.958;2023-07-24T01:18:09;97016.34;;;23.13;48.99
9746;BME280;4912;50.836;12.958;2023-07-24T01:20:43;97026.53;;;23.09;49.37
9746;BME280;4912;50.836;12.958;2023-07-24T01:23:29;97025.03;;;23.08;49.15
9746;BME280;4912;50.836;12.958;2023-07-24T01:26:11;97020.13;;;23.08;49.22
9746;BME280;4912;50.836;12.958;2023-07-24T01:28:43;97015.44;;;23.03;49.30
9746;BME280;4912;50.836;12.958;2023-07-24T01:31:13;97023.72;;;23.01;49.28
9746;BME280;4912;50.836;12.958;2023-07-24T01:33:44;97019.97;;;22.99;49.26
9746;BME280;4912;50.836;12.958;2023-07-24T01:36:18;97028.63;;;23.01;49.05
9746;BME280;4912;50.836;12.958;2023-07-24T01:38:50;97031.66;;;22.95;49.46
9746;BME280;4912;50.836;12.958;2023-07-24T01:41:24;97029.97;;;22.92;49.66
9746;BME280;4912;50.836;12.958;2023-07-24T01:43:55;97031.47;;;22.93;49.78
9746;BME280;4912;50.836;12.958;2023-07-24T01:46:25;97034.28;;;22.93;49.55
9746;BME280;4912;50.836;12.958;2023-07-24T01:48:57;97033.16;;;22.96;49.61
9746;BME280;4912;50.836;12.958;2023-07-24T01:51:27;97031.84;;;22.97;49.39
9746;BME280;4912;50.836;12.958;2023-07-24T01:53:58;97036.56;;;22.87;49.81
9746;BME280;4912;50.836;12.958;2023-07-24T01:56:31;97034.31;;;22.85;49.50
9746;BME280;4912;50.836;12.958;2023-07-24T01:59:01;97031.69;;;22.80;49.80
9746;BME280;4912;50.836;12.958;2023-07-24T02:01:32;97027.41;;;22.79;49.98
9746;BME280;4912;50.836;12.958;2023-07-24T02:04:03;97017.66;;;22.72;49.88
9746;BME280;4912;50.836;12.958;2023-07-24T02:06:34;97012.16;;;22.82;49.87
9746;BME280;4912;50.836;12.958;2023-07-24T02:09:04;97006.50;;;22.82;49.78
9746;BME280;4912;50.836;12.958;2023-07-24T02:11:37;97009.19;;;22.72;49.72
9746;BME280;4912;50.836;12.958;2023-07-24T02:14:08;97014.06;;;22.64;50.04
9746;BME280;4912;50.836;12.958;2023-07-24T02:16:39;97013.16;;;22.62;50.40
9746;BME280;4912;50.836;12.958;2023-07-24T02:19:10;97015.19;;;22.76;49.62
9746;BME280;4912;50.836;12.958;2023-07-24T02:21:40;97009.53;;;22.76;49.67
9746;BME280;4912;50.836;12.958;2023-07-24T02:24:10;96999.56;;;22.75;49.42
9746;BME280;4912;50.836;12.958;2023-07-24T02:26:44;96997.91;;;22.72;49.49
9746;BME280;4912;50.836;12.958;2023-07-24T02:29:14;96995.03;;;22.80;49.42
9746;BME280;4912;50.836;12.958;2023-07-24T02:31:44;96994.50;;;22.74;49.49
9746;BME280;4912;50.836;12.958;2023-07-24T02:34:15;96994.13;;;22.77;49.39
9746;BME280;4912;50.836;12.958;2023-07-24T02:36:46;96989.22;;;22.78;49.43
9746;BME280;4912;50.836;12.958;2023-07-24T02:39:16;96993.91;;;22.83;49.15
9746;BME280;4912;50.836;12.958;2023-07-24T02:41:49;96989.41;;;22.80;49.28
9746;BME280;4912;50.836;12.958;2023-07-24T02:44:20;96992.22;;;22.80;49.06
9746;BME280;4912;50.836;12.958;2023-07-24T02:46:50;96992.00;;;22.85;49.29
9746;BME280;4912;50.836;12.958;2023-07-24T02:49:22;96999.88;;;22.95;48.76
9746;BME280;4912;50.836;12.958;2023-07-24T02:51:52;97000.22;;;22.99;48.34
9746;BME280;4912;50.836;12.958;2023-07-24T02:54:23;96992.13;;;23.03;48.22
9746;BME280;4912;50.836;12.958;2023-07-24T02:56:56;96990.22;;;23.05;48.12
9746;BME280;4912;50.836;12.958;2023-07-24T02:59:27;96987.41;;;23.05;48.17
9746;BME280;4912;50.836;12.958;2023-07-24T03:01:59;96981.00;;;23.05;48.24
9746;BME280;4912;50.836;12.958;2023-07-24T03:04:30;96986.06;;;23.06;48.04
9746;BME280;4912;50.836;12.958;2023-07-24T03:07:01;96989.25;;;23.10;48.11
9746;BME280;4912;50.836;12.958;2023-07-24T03:09:31;96984.19;;;23.09;47.81
9746;BME280;4912;50.836;12.958;2023-07-24T03:12:04;96977.78;;;23.08;47.72
9746;BME280;4912;50.836;12.958;2023-07-24T03:14:36;96974.78;;;23.06;48.40
9746;BME280;4912;50.836;12.958;2023-07-24T03:17:06;96976.66;;;23.04;48.39
9746;BME280;4912;50.836;12.958;2023-07-24T03:19:36;96963.50;;;23.06;48.20
9746;BME280;4912;50.836;12.958;2023-07-24T03:22:08;96964.25;;;23.07;48.30
9746;BME280;4912;50.836;12.958;2023-07-24T03:24:38;96958.59;;;23.07;48.32
9746;BME280;4912;50.836;12.958;2023-07-24T03:27:11;96956.75;;;23.02;48.24
9746;BME280;4912;50.836;12.958;2023-07-24T03:29:42;96952.22;;;23.06;48.27
9746;BME280;4912;50.836;12.958;2023-07-24T03:32:12;96964.63;;;23.03;48.00
9746;BME280;4912;50.836;12.958;2023-07-24T03:34:43;96956.34;;;23.05;48.22
9746;BME280;4912;50.836;12.958;2023-07-24T03:37:13;96960.56;;;22.97;48.33
9746;BME280;4912;50.836;12.958;2023-07-24T03:39:43;96947.72;;;23.03;48.22
9746;BME280;4912;50.836;12.958;2023-07-24T03:42:25;96939.84;;;23.02;48.17
9746;BME280;4912;50.836;12.958;2023-07-24T03:44:56;96942.44;;;23.07;47.94
9746;BME280;4912;50.836;12.958;2023-07-24T03:47:28;96939.94;;;23.11;47.91
9746;BME280;4912;50.836;12.958;2023-07-24T03:49:58;96938.81;;;23.14;47.67
9746;BME280;4912;50.836;12.958;2023-07-24T03:52:29;96936.91;;;23.17;47.70
9746;BME280;4912;50.836;12.958;2023-07-24T03:54:59;96943.47;;;23.19;47.66
9746;BME280;4912;50.836;12.958;2023-07-24T03:57:32;96930.69;;;23.18;48.14
9746;BME280;4912;50.836;12.958;2023-07-24T04:00:04;96933.00;;;23.12;48.05
9746;BME280;4912;50.836;12.958;2023-07-24T04:02:39;96933.78;;;23.05;48.14
9746;BME280;4912;50.836;12.958;2023-07-24T04:05:09;96933.03;;;23.05;48.52
9746;BME280;4912;50.836;12.958;2023-07-24T04:07:40;96926.47;;;23.02;48.47
9746;BME280;4912;50.836;12.958;2023-07-24T04:10:11;96927.00;;;23.08;48.16
9746;BME280;4912;50.836;12.958;2023-07-24T04:12:44;96925.72;;;23.02;48.26
9746;BME280;4912;50.836;12.958;2023-07-24T04:15:15;96923.47;;;23.00;48.25
9746;BME280;4912;50.836;12.958;2023-07-24T04:17:45;96927.94;;;23.03;48.63
9746;BME280;4912;50.836;12.958;2023-07-24T04:20:16;96935.09;;;23.04;48.15
9746;BME280;4912;50.836;12.958;2023-07-24T04:22:46;96937.56;;;23.00;48.63
9746;BME280;4912;50.836;12.958;2023-07-24T04:25:17;96935.69;;;23.03;48.54
9746;BME280;4912;50.836;12.958;2023-07-24T04:27:50;96933.97;;;23.07;48.35
9746;BME280;4912;50.836;12.958;2023-07-24T04:30:20;96925.31;;;23.05;48.33
9746;BME280;4912;50.836;12.958;2023-07-24T04:32:50;96935.09;;;23.04;48.59
9746;BME280;4912;50.836;12.958;2023-07-24T04:35:21;96925.88;;;23.04;48.68
9746;BME280;4912;50.836;12.958;2023-07-24T04:37:51;96922.53;;;22.98;48.59
9746;BME280;4912;50.836;12.958;2023-07-24T04:40:22;96924.00;;;23.06;48.30
9746;BME280;4912;50.836;12.958;2023-07-24T04:42:54;96923.19;;;23.13;48.19
9746;BME280;4912;50.836;12.958;2023-07-24T04:45:25;96923.19;;;23.13;48.44
9746;BME280;4912;50.836;12.958;2023-07-24T04:47:55;96920.53;;;23.15;48.37
9746;BME280;4912;50.836;12.958;2023-07-24T04:50:26;96913.41;;;23.14;48.11
9746;BME280;4912;50.836;12.958;2023-07-24T04:52:56;96909.09;;;23.13;48.25
9746;BME280;4912;50.836;12.958;2023-07-24T04:55:27;96904.19;;;23.14;48.32
9746;BME280;4912;50.836;12.958;2023-07-24T04:58:00;96909.25;;;23.15;48.00
9746;BME280;4912;50.836;12.958;2023-07-24T05:00:30;96908.53;;;23.15;48.25
9746;BME280;4912;50.836;12.958;2023-07-24T05:03:01;96914.56;;;23.11;48.07
9746;BME280;4912;50.836;12.958;2023-07-24T05:05:32;96909.47;;;23.10;48.75
9746;BME280;4912;50.836;12.958;2023-07-24T05:08:03;96896.88;;;23.11;48.18
9746;BME280;4912;50.836;12.958;2023-07-24T05:10:34;96897.00;;;23.20;48.28
9746;BME280;4912;50.836;12.958;2023-07-24T05:13:08;96908.44;;;23.22;48.10
9746;BME280;4912;50.836;12.958;2023-07-24T05:15:39;96911.13;;;23.20;48.04
9746;BME280;4912;50.836;12.958;2023-07-24T05:18:10;96904.88;;;23.22;47.95
9746;BME280;4912;50.836;12.958;2023-07-24T05:20:42;96909.16;;;23.31;48.23
9746;BME280;4912;50.836;12.958;2023-07-24T05:23:13;96909.09;;;23.38;47.96
9746;BME280;4912;50.836;12.958;2023-07-24T05:25:44;96908.66;;;23.49;47.73
9746;BME280;4912;50.836;12.958;2023-07-24T05:28:18;96908.84;;;23.68;47.95
9746;BME280;4912;50.836;12.958;2023-07-24T05:30:49;96905.63;;;23.72;47.40
9746;BME280;4912;50.836;12.958;2023-07-24T05:33:19;96912.53;;;23.79;47.11
9746;BME280;4912;50.836;12.958;2023-07-24T05:35:50;96903.63;;;23.82;47.38
9746;BME280;4912;50.836;12.958;2023-07-24T05:38:20;96909.28;;;23.82;46.95
9746;BME280;4912;50.836;12.958;2023-07-24T05:40:54;96909.72;;;23.96;46.65
9746;BME280;4912;50.836;12.958;2023-07-24T05:43:27;96904.06;;;23.96;46.69
9746;BME280;4912;50.836;12.958;2023-07-24T05:45:59;96908.78;;;23.76;47.23
9746;BME280;4912;50.836;12.958;2023-07-24T05:48:30;96903.53;;;23.73;47.56
9746;BME280;4912;50.836;12.958;2023-07-24T05:51:00;96902.53;;;23.78;47.30
9746;BME280;4912;50.836;12.958;2023-07-24T05:53:30;96897.47;;;23.76;46.87
9746;BME280;4912;50.836;12.958;2023-07-24T05:56:01;96894.66;;;23.76;47.25
9746;BME280;4912;50.836;12.958;2023-07-24T05:58:34;96892.50;;;23.67;47.32
9746;BME280;4912;50.836;12.958;2023-07-24T06:01:05;96897.53;;;23.68;47.00
9746;BME280;4912;50.836;12.958;2023-07-24T06:03:37;96897.47;;;23.76;46.74
9746;BME280;4912;50.836;12.958;2023-07-24T06:06:08;96902.78;;;23.72;46.52
9746;BME280;4912;50.836;12.958;2023-07-24T06:08:38;96904.81;;;23.79;46.44
9746;BME280;4912;50.836;12.958;2023-07-24T06:11:09;96900.22;;;23.84;46.40
9746;BME280;4912;50.836;12.958;2023-07-24T06:13:43;96894.25;;;23.80;45.73
9746;BME280;4912;50.836;12.958;2023-07-24T06:16:13;96891.75;;;23.84;46.33
9746;BME280;4912;50.836;12.958;2023-07-24T06:18:43;96885.34;;;23.83;45.65
9746;BME280;4912;50.836;12.958;2023-07-24T06:21:14;96885.53;;;24.02;45.67
9746;BME280;4912;50.836;12.958;2023-07-24T06:23:44;96887.63;;;24.19;45.24
9746;BME280;4912;50.836;12.958;2023-07-24T06:26:15;96888.69;;;24.24;44.81
9746;BME280;4912;50.836;12.958;2023-07-24T06:28:48;96896.16;;;24.29;45.11
9746;BME280;4912;50.836;12.958;2023-07-24T06:31:18;96897.25;;;24.33;44.82
9746;BME280;4912;50.836;12.958;2023-07-24T06:33:49;96892.09;;;24.22;45.05
9746;BME280;4912;50.836;12.958;2023-07-24T06:36:19;96885.19;;;24.33;45.08
9746;BME280;4912;50.836;12.958;2023-07-24T06:38:50;96889.84;;;24.38;44.99
9746;BME280;4912;50.836;12.958;2023-07-24T06:41:20;96878.25;;;24.61;44.68
9746;BME280;4912;50.836;12.958;2023-07-24T06:43:54;96877.44;;;24.77;44.12
9746;BME280;4912;50.836;12.958;2023-07-24T06:46:25;96879.25;;;24.82;43.95
9746;BME280;4912;50.836;12.958;2023-07-24T06:48:56;96888.84;;;24.70;44.54
9746;BME280;4912;50.836;12.958;2023-07-24T06:51:26;96895.97;;;24.61;44.37
9746;BME280;4912;50.836;12.958;2023-07-24T06:53:56;96884.44;;;24.50;44.88
9746;BME280;4912;50.836;12.958;2023-07-24T06:56:27;96885.22;;;24.60;45.36
9746;BME280;4912;50.836;12.958;2023-07-24T06:59:01;96895.47;;;24.82;44.42
9746;BME280;4912;50.836;12.958;2023-07-24T07:01:31;96882.63;;;24.98;44.66
9746;BME280;4912;50.836;12.958;2023-07-24T07:04:02;96865.69;;;25.08;44.26
9746;BME280;4912;50.836;12.958;2023-07-24T07:06:32;96866.06;;;25.31;43.86
9746;BME280;4912;50.836;12.958;2023-07-24T07:09:05;96863.25;;;25.41;44.05
9746;BME280;4912;50.836;12.958;2023-07-24T07:11:35;96858.13;;;25.66;43.37
9746;BME280;4912;50.836;12.958;2023-07-24T07:14:08;96857.25;;;25.92;42.96
9746;BME280;4912;50.836;12.958;2023-07-24T07:16:40;96858.59;;;26.01;42.63
9746;BME280;4912;50.836;12.958;2023-07-24T07:19:11;96854.13;;;25.98;42.38
9746;BME280;4912;50.836;12.958;2023-07-24T07:21:42;96842.66;;;25.96;42.59
9746;BME280;4912;50.836;12.958;2023-07-24T07:24:12;96839.38;;;26.28;42.27
9746;BME280;4912;50.836;12.958;2023-07-24T07:26:43;96834.13;;;26.44;42.67
9746;BME280;4912;50.836;12.958;2023-07-24T07:29:16;96830.00;;;26.76;41.82
9746;BME280;4912;50.836;12.958;2023-07-24T07:31:47;96828.69;;;26.67;41.79
9746;BME280;4912;50.836;12.958;2023-07-24T07:34:17;96827.78;;;26.65;41.83
9746;BME280;4912;50.836;12.958;2023-07-24T07:36:48;96816.56;;;26.76;41.95
9746;BME280;4912;50.836;12.958;2023-07-24T07:39:18;96805.19;;;27.17;41.60
9746;BME280;4912;50.836;12.958;2023-07-24T07:41:49;96798.94;;;27.40;40.21
9746;BME280;4912;50.836;12.958;2023-07-24T07:44:42;96795.28;;;27.49;40.19
9746;BME280;4912;50.836;12.958;2023-07-24T07:47:12;96791.22;;;27.94;39.79
9746;BME280;4912;50.836;12.958;2023-07-24T07:49:43;96794.94;;;28.18;39.14
9746;BME280;4912;50.836;12.958;2023-07-24T07:52:14;96793.31;;;28.60;38.53
9746;BME280;4912;50.836;12.958;2023-07-24T07:54:46;96793.97;;;28.81;38.63
9746;BME280;4912;50.836;12.958;2023-07-24T07:57:17;96802.03;;;28.85;38.39
9746;BME280;4912;50.836;12.958;2023-07-24T07:59:50;96797.53;;;28.70;38.90
9746;BME280;4912;50.836;12.958;2023-07-24T08:02:20;96801.69;;;28.46;39.15
9746;BME280;4912;50.836;12.958;2023-07-24T08:04:51;96790.91;;;28.11;39.51
9746;BME280;4912;50.836;12.958;2023-07-24T08:07:21;96806.38;;;27.87;39.98
9746;BME280;4912;50.836;12.958;2023-07-24T08:09:52;96801.28;;;27.53;41.11
9746;BME280;4912;50.836;12.958;2023-07-24T08:12:23;96810.69;;;27.55;41.32
9746;BME280;4912;50.836;12.958;2023-07-24T08:14:57;96801.69;;;27.28;41.51
9746;BME280;4912;50.836;12.958;2023-07-24T08:17:27;96791.69;;;27.27;42.13
9746;BME280;4912;50.836;12.958;2023-07-24T08:19:58;96786.75;;;27.27;42.46
9746;BME280;4912;50.836;12.958;2023-07-24T08:22:29;96797.47;;;27.39;42.20
9746;BME280;4912;50.836;12.958;2023-07-24T08:24:59;96793.16;;;27.59;42.01
9746;BME280;4912;50.836;12.958;2023-07-24T08:27:30;96783.94;;;27.49;41.10
9746;BME280;4912;50.836;12.958;2023-07-24T08:30:23;96785.50;;;27.83;41.19
9746;BME280;4912;50.836;12.958;2023-07-24T08:32:54;96779.00;;;28.25;40.15
9746;BME280;4912;50.836;12.958;2023-07-24T08:35:25;96784.16;;;28.61;39.48
9746;BME280;4912;50.836;12.958;2023-07-24T08:37:56;96772.50;;;28.69;38.94
9746;BME280;4912;50.836;12.958;2023-07-24T08:40:27;96783.38;;;28.37;39.64
9746;BME280;4912;50.836;12.958;2023-07-24T08:42:57;96776.91;;;28.25;39.91
9746;BME280;4912;50.836;12.958;2023-07-24T08:45:31;96781.88;;;28.36;39.65
9746;BME280;4912;50.836;12.958;2023-07-24T08:48:02;96780.69;;;28.51;39.86
9746;BME280;4912;50.836;12.958;2023-07-24T08:50:35;96788.13;;;28.23;40.31
9746;BME280;4912;50.836;12.958;2023-07-24T08:53:06;96787.00;;;28.17;40.63
9746;BME280;4912;50.836;12.958;2023-07-24T08:55:36;96781.75;;;28.01;41.02
9746;BME280;4912;50.836;12.958;2023-07-24T08:58:07;96790.63;;;27.96;41.17
9746;BME280;4912;50.836;12.958;2023-07-24T09:00:41;96790.16;;;27.78;40.54
9746;BME280;4912;50.836;12.958;2023-07-24T09:03:11;96797.34;;;27.58;40.83
9746;BME280;4912;50.836;12.958;2023-07-24T09:05:42;96797.91;;;27.35;41.10
9746;BME280;4912;50.836;12.958;2023-07-24T09:08:13;96793.97;;;27.19;41.88
9746;BME280;4912;50.836;12.958;2023-07-24T09:10:44;96794.03;;;27.09;42.48
9746;BME280;4912;50.836;12.958;2023-07-24T09:13:14;96795.50;;;27.10;42.70
9746;BME280;4912;50.836;12.958;2023-07-24T09:15:48;96795.38;;;27.08;42.68
9746;BME280;4912;50.836;12.958;2023-07-24T09:18:18;96792.16;;;27.23;42.67
9746;BME280;4912;50.836;12.958;2023-07-24T09:20:49;96794.22;;;27.33;42.64
9746;BME280;4912;50.836;12.958;2023-07-24T09:23:26;96780.03;;;27.54;42.49
9746;BME280;4912;50.836;12.958;2023-07-24T09:25:58;96784.97;;;27.53;42.64
9746;BME280;4912;50.836;12.958;2023-07-24T09:28:28;96780.28;;;27.58;41.82
9746;BME280;4912;50.836;12.958;2023-07-24T09:31:03;96782.84;;;27.75;42.06
9746;BME280;4912;50.836;12.958;2023-07-24T09:33:35;96780.16;;;27.77;41.25
9746;BME280;4912;50.836;12.958;2023-07-24T09:36:08;96771.13;;;27.81;41.67
9746;BME280;4912;50.836;12.958;2023-07-24T09:38:41;96778.19;;;27.58;41.82
9746;BME280;4912;50.836;12.958;2023-07-24T09:41:13;96783.19;;;27.48;42.16
9746;BME280;4912;50.836;12.958;2023-07-24T09:43:45;96778.28;;;27.39;42.76
9746;BME280;4912;50.836;12.958;2023-07-24T09:46:19;96772.91;;;27.43;42.53
9746;BME280;4912;50.836;12.958;2023-07-24T09:48:55;96776.53;;;27.34;43.23
9746;BME280;4912;50.836;12.958;2023-07-24T09:51:30;96798.06;;;27.37;43.88
9746;BME280;4912;50.836;12.958;2023-07-24T09:54:06;96802.72;;;27.33;44.11
9746;BME280;4912;50.836;12.958;2023-07-24T09:56:45;96792.03;;;27.21;44.54
9746;BME280;4912;50.836;12.958;2023-07-24T09:59:25;96783.03;;;27.25;44.61
9746;BME280;4912;50.836;12.958;2023-07-24T10:01:59;96776.44;;;27.01;44.49
9746;BME280;4912;50.836;12.958;2023-07-24T10:04:32;96786.03;;;26.96;45.50
9746;BME280;4912;50.836;12.958;2023-07-24T10:07:03;96775.44;;;27.18;44.91
9746;BME280;4912;50.836;12.958;2023-07-24T10:09:35;96774.66;;;27.69;44.14
9746;BME280;4912;50.836;12.958;2023-07-24T10:12:08;96768.22;;;27.90;43.62
9746;BME280;4912;50.836;12.958;2023-07-24T10:14:39;96761.28;;;28.15;43.71
9746;BME280;4912;50.836;12.958;2023-07-24T10:17:12;96753.81;;;28.42;43.24
9746;BME280;4912;50.836;12.958;2023-07-24T10:19:46;96756.56;;;28.99;42.41
9746;BME280;4912;50.836;12.958;2023-07-24T10:22:17;96749.25;;;29.30;41.32
9746;BME280;4912;50.836;12.958;2023-07-24T10:24:55;96749.28;;;29.07;40.72
9746;BME280;4912;50.836;12.958;2023-07-24T10:27:25;96736.91;;;28.91;40.98
9746;BME280;4912;50.836;12.958;2023-07-24T10:29:59;96736.25;;;29.04;41.00
9746;BME280;4912;50.836;12.958;2023-07-24T10:32:50;96727.94;;;29.31;40.74
9746;BME280;4912;50.836;12.958;2023-07-24T10:35:36;96716.06;;;29.72;39.30
9746;BME280;4912;50.836;12.958;2023-07-24T10:38:08;96727.66;;;29.51;40.30
9746;BME280;4912;50.836;12.958;2023-07-24T10:40:40;96711.63;;;29.57;40.26
9746;BME280;4912;50.836;12.958;2023-07-24T10:43:13;96708.91;;;29.96;38.91
9746;BME280;4912;50.836;12.958;2023-07-24T10:45:50;96704.19;;;29.89;38.25
9746;BME280;4912;50.836;12.958;2023-07-24T10:48:25;96710.19;;;29.82;37.94
9746;BME280;4912;50.836;12.958;2023-07-24T10:50:56;96702.66;;;29.75;38.31
9746;BME280;4912;50.836;12.958;2023-07-24T10:53:26;96698.75;;;29.82;37.79
9746;BME280;4912;50.836;12.958;2023-07-24T10:55:57;96708.63;;;31.09;36.32
9746;BME280;4912;50.836;12.958;2023-07-24T10:58:30;96684.19;;;31.92;34.77
9746;BME280;4912;50.836;12.958;2023-07-24T11:01:04;96687.75;;;31.93;34.20
9746;BME280;4912;50.836;12.958;2023-07-24T11:03:40;96680.78;;;32.11;33.92
9746;BME280;4912;50.836;12.958;2023-07-24T11:06:13;96675.66;;;32.24;34.03
9746;BME280;4912;50.836;12.958;2023-07-24T11:08:51;96672.16;;;31.37;34.79
9746;BME280;4912;50.836;12.958;2023-07-24T11:11:28;96667.75;;;30.66;36.33
9746;BME280;4912;50.836;12.958;2023-07-24T11:14:01;96674.97;;;30.28;37.52
9746;BME280;4912;50.836;12.958;2023-07-24T11:16:32;96692.88;;;30.03;38.07
9746;BME280;4912;50.836;12.958;2023-07-24T11:19:06;96675.59;;;29.76;38.45
9746;BME280;4912;50.836;12.958;2023-07-24T11:21:36;96683.56;;;29.40;39.82
9746;BME280;4912;50.836;12.958;2023-07-24T11:24:07;96678.69;;;29.06;40.53
9746;BME280;4912;50.836;12.958;2023-07-24T11:26:38;96678.44;;;29.02;40.96
9746;BME280;4912;50.836;12.958;2023-07-24T11:29:11;96678.25;;;28.74;41.58
9746;BME280;4912;50.836;12.958;2023-07-24T11:31:42;96682.41;;;28.38;42.01
9746;BME280;4912;50.836;12.958;2023-07-24T11:34:15;96685.34;;;28.17;43.03
9746;BME280;4912;50.836;12.958;2023-07-24T11:36:46;96699.63;;;27.96;43.61
9746;BME280;4912;50.836;12.958;2023-07-24T11:39:22;96720.75;;;27.60;44.99
9746;BME280;4912;50.836;12.958;2023-07-24T11:41:53;96740.31;;;26.92;51.37
9746;BME280;4912;50.836;12.958;2023-07-24T11:44:26;96762.34;;;26.13;56.74
9746;BME280;4912;50.836;12.958;2023-07-24T11:47:00;96757.59;;;25.48;60.03
9746;BME280;4912;50.836;12.958;2023-07-24T11:49:35;96775.22;;;25.00;63.53
9746;BME280;4912;50.836;12.958;2023-07-24T11:52:12;96751.16;;;24.72;62.94
9746;BME280;4912;50.836;12.958;2023-07-24T11:54:43;96751.84;;;24.63;61.52
9746;BME280;4912;50.836;12.958;2023-07-24T11:57:19;96760.09;;;24.42;60.43
9746;BME280;4912;50.836;12.958;2023-07-24T11:59:49;96762.88;;;24.32;61.69
9746;BME280;4912;50.836;12.958;2023-07-24T12:02:20;96779.78;;;24.05;63.17
9746;BME280;4912;50.836;12.958;2023-07-24T12:04:57;96798.19;;;23.80;66.14
9746;BME280;4912;50.836;12.958;2023-07-24T12:07:32;96801.34;;;23.49;68.96
9746;BME280;4912;50.836;12.958;2023-07-24T12:10:05;96804.50;;;23.11;73.36
9746;BME280;4912;50.836;12.958;2023-07-24T12:12:39;96789.13;;;22.80;76.29
9746;BME280;4912;50.836;12.958;2023-07-24T12:15:14;96778.94;;;22.60;80.50
9746;BME280;4912;50.836;12.958;2023-07-24T12:17:47;96752.50;;;22.48;81.69
9746;BME280;4912;50.836;12.958;2023-07-24T12:20:20;96745.00;;;22.50;82.99
9746;BME280;4912;50.836;12.958;2023-07-24T12:22:51;96735.84;;;22.67;83.90
9746;BME280;4912;50.836;12.958;2023-07-24T12:25:24;96729.78;;;22.95;82.53
9746;BME280;4912;50.836;12.958;2023-07-24T12:28:06;96729.50;;;23.60;79.03
9746;BME280;4912;50.836;12.958;2023-07-24T12:30:36;96725.13;;;24.83;72.29
9746;BME280;4912;50.836;12.958;2023-07-24T12:33:07;96727.81;;;25.56;67.50
9746;BME280;4912;50.836;12.958;2023-07-24T12:35:40;96727.22;;;25.67;69.73
9746;BME280;4912;50.836;12.958;2023-07-24T12:38:10;96723.63;;;25.77;67.33
9746;BME280;4912;50.836;12.958;2023-07-24T12:40:41;96715.28;;;25.59;67.18
9746;BME280;4912;50.836;12.958;2023-07-24T12:43:11;96716.13;;;25.52;66.72
9746;BME280;4912;50.836;12.958;2023-07-24T12:45:42;96713.59;;;25.47;66.33
9746;BME280;4912;50.836;12.958;2023-07-24T12:48:12;96710.97;;;25.68;66.36
9746;BME280;4912;50.836;12.958;2023-07-24T12:50:47;96711.50;;;25.95;64.95
9746;BME280;4912;50.836;12.958;2023-07-24T12:53:18;96713.44;;;25.93;62.99
9746;BME280;4912;50.836;12.958;2023-07-24T12:55:53;96695.81;;;26.14;60.29
9746;BME280;4912;50.836;12.958;2023-07-24T12:58:23;96697.09;;;27.03;58.13
9746;BME280;4912;50.836;12.958;2023-07-24T13:00:54;96691.34;;;28.79;51.29
9746;BME280;4912;50.836;12.958;2023-07-24T13:03:25;96705.16;;;29.20;48.65
9746;BME280;4912;50.836;12.958;2023-07-24T13:05:58;96688.13;;;28.50;47.29
9746;BME280;4912;50.836;12.958;2023-07-24T13:08:29;96684.91;;;28.90;45.45
9746;BME280;4912;50.836;12.958;2023-07-24T13:11:00;96670.81;;;29.41;45.31
9746;BME280;4912;50.836;12.958;2023-07-24T13:13:30;96658.34;;;29.60;44.57
9746;BME280;4912;50.836;12.958;2023-07-24T13:16:01;96655.09;;;30.30;42.12
9746;BME280;4912;50.836;12.958;2023-07-24T13:18:31;96632.94;;;30.83;41.54
9746;BME280;4912;50.836;12.958;2023-07-24T13:21:04;96624.28;;;30.67;40.81
9746;BME280;4912;50.836;12.958;2023-07-24T13:23:35;96624.56;;;30.46;41.46
9746;BME280;4912;50.836;12.958;2023-07-24T13:26:06;96617.47;;;31.15;40.56
9746;BME280;4912;50.836;12.958;2023-07-24T13:28:37;96613.88;;;31.01;41.22
9746;BME280;4912;50.836;12.958;2023-07-24T13:31:13;96604.81;;;30.64;43.07
9746;BME280;4912;50.836;12.958;2023-07-24T13:33:44;96592.75;;;31.36;41.70
9746;BME280;4912;50.836;12.958;2023-07-24T13:36:18;96587.09;;;30.95;42.50